createdAt,value
2022-09-07T00:00:42.770Z,99936.13
2022-09-07T00:03:10.252Z,99912.56
2022-09-07T00:05:49.128Z,99885.44
2022-09-07T00:08:19.376Z,99933.31
2022-09-07T00:10:58.132Z,99934.34
2022-09-07T00:13:27.503Z,99920.25
2022-09-07T00:15:54.846Z,99937.06
2022-09-07T00:18:22.748Z,99935.38
2022-09-07T00:21:04.164Z,99829.69
2022-09-07T00:23:32.297Z,99933.69
2022-09-07T00:26:04.803Z,99899.56
2022-09-07T00:28:32.385Z,99937.06
2022-09-07T00:30:59.582Z,99854.91
2022-09-07T00:33:27.600Z,99926.66
2022-09-07T00:35:54.919Z,99921.53
2022-09-07T00:38:22.110Z,99879.34
2022-09-07T00:40:49.409Z,99856.75
2022-09-07T00:43:29.567Z,99923.06
2022-09-07T00:45:56.921Z,99831.28
2022-09-07T00:48:31.489Z,99903.06
2022-09-07T00:51:06.377Z,99886.47
2022-09-07T00:53:43.660Z,99831.44
2022-09-07T00:56:12.247Z,99906.63
2022-09-07T00:58:42.596Z,99852.41
2022-09-07T01:01:10.355Z,99911.94
2022-09-07T01:03:42.913Z,99828.06
2022-09-07T01:06:24.186Z,99916.28
2022-09-07T01:08:51.512Z,99903.22
2022-09-07T01:11:23.321Z,99889.25
2022-09-07T01:13:52.541Z,99912.00
2022-09-07T01:16:31.753Z,99913.00
2022-09-07T01:19:26.745Z,99909.56
2022-09-07T01:22:21.833Z,99901.75
2022-09-07T01:25:12.658Z,99885.19
2022-09-07T01:27:48.954Z,99901.91
2022-09-07T01:30:21.471Z,99898.41
2022-09-07T01:33:10.939Z,99903.63
2022-09-07T01:36:05.944Z,99865.09
2022-09-07T01:38:50.567Z,99891.28
2022-09-07T01:41:17.877Z,99889.38
2022-09-07T01:44:08.100Z,99892.75
2022-09-07T01:46:43.852Z,99806.19
2022-09-07T01:49:21.341Z,99868.97
2022-09-07T01:51:55.643Z,99886.34
2022-09-07T01:54:41.577Z,99869.72
2022-09-07T01:57:16.819Z,99859.28
2022-09-07T01:59:57.734Z,99879.44
2022-09-07T02:02:40.188Z,99875.91
2022-09-07T02:05:25.640Z,99786.81
2022-09-07T02:08:00.586Z,99880.31
2022-09-07T02:10:35.324Z,99855.75
2022-09-07T02:13:17.356Z,99870.66
2022-09-07T02:16:01.906Z,99741.09
2022-09-07T02:18:37.582Z,99878.50
2022-09-07T02:21:07.726Z,99875.88
2022-09-07T02:23:41.563Z,99887.13
2022-09-07T02:26:17.429Z,99872.44
2022-09-07T02:28:44.797Z,99848.94
2022-09-07T02:31:11.973Z,99780.75
2022-09-07T02:33:39.281Z,99857.78
2022-09-07T02:36:07.380Z,99857.78
2022-09-07T02:38:35.507Z,99860.44
2022-09-07T02:41:04.233Z,99862.19
2022-09-07T02:43:32.525Z,99874.38
2022-09-07T02:46:11.767Z,99865.75
2022-09-07T02:48:50.233Z,99799.28
2022-09-07T02:51:20.118Z,99640.22
2022-09-07T02:53:53.121Z,99871.56
2022-09-07T02:56:39.321Z,99864.66
2022-09-07T02:59:12.152Z,99825.25
2022-09-07T03:02:01.872Z,99763.34
2022-09-07T03:04:47.041Z,99858.59
2022-09-07T03:07:23.101Z,99836.69
2022-09-07T03:09:53.934Z,99789.50
2022-09-07T03:12:21.592Z,99839.28
2022-09-07T03:14:49.082Z,99818.31
2022-09-07T03:17:16.613Z,99846.38
2022-09-07T03:19:43.720Z,99842.91
2022-09-07T03:22:10.786Z,99833.44
2022-09-07T03:24:37.951Z,99845.78
2022-09-07T03:27:05.193Z,99846.34
2022-09-07T03:29:32.438Z,99844.66
2022-09-07T03:31:59.531Z,99851.69
2022-09-07T03:34:26.659Z,99742.56
2022-09-07T03:36:53.931Z,99843.06
2022-09-07T03:39:23.914Z,99831.06
2022-09-07T03:41:51.116Z,99776.03
2022-09-07T03:44:18.356Z,99822.34
2022-09-07T03:46:45.452Z,99747.22
2022-09-07T03:49:12.673Z,99836.31
2022-09-07T03:51:39.808Z,99823.44
2022-09-07T03:54:07.676Z,99803.31
2022-09-07T03:56:35.069Z,99812.13
2022-09-07T03:59:02.464Z,99820.91
2022-09-07T04:01:29.758Z,99671.59
2022-09-07T04:04:02.261Z,99788.59
2022-09-07T04:06:30.713Z,99754.44
2022-09-07T04:09:01.318Z,99826.94
2022-09-07T04:11:28.373Z,99831.28
2022-09-07T04:13:55.415Z,99813.97
2022-09-07T04:16:26.521Z,99821.84
2022-09-07T04:18:57.801Z,99815.81
2022-09-07T04:21:28.369Z,99810.63
2022-09-07T04:23:55.611Z,99800.13
2022-09-07T04:26:27.233Z,99792.25
2022-09-07T04:28:54.729Z,99803.50
2022-09-07T04:31:23.056Z,99739.78
2022-09-07T04:33:51.809Z,99689.19
2022-09-07T04:36:20.470Z,99719.91
2022-09-07T04:38:48.515Z,99815.97
2022-09-07T04:41:17.814Z,99801.22
2022-09-07T04:43:46.497Z,99648.53
2022-09-07T04:46:20.681Z,99824.88
2022-09-07T04:48:53.558Z,99822.47
2022-09-07T04:51:22.794Z,99799.91
2022-09-07T04:53:51.742Z,99815.00
2022-09-07T04:56:20.386Z,99792.41
2022-09-07T04:58:48.019Z,99817.03
2022-09-07T05:01:19.041Z,99804.09
2022-09-07T05:03:47.052Z,99795.47
2022-09-07T05:06:15.010Z,99737.06
2022-09-07T05:08:44.801Z,99770.25
2022-09-07T05:11:13.752Z,99712.56
2022-09-07T05:13:41.297Z,99807.72
2022-09-07T05:16:20.239Z,99806.06
2022-09-07T05:18:59.427Z,99806.91
2022-09-07T05:21:28.930Z,99800.75
2022-09-07T05:23:57.538Z,99813.00
2022-09-07T05:26:27.353Z,99738.78
2022-09-07T05:31:42.412Z,99813.28
2022-09-07T05:36:57.771Z,99800.25
2022-09-07T05:39:26.051Z,99817.72
2022-09-07T05:41:53.121Z,99818.59
2022-09-07T05:47:07.446Z,99757.59
2022-09-07T05:49:34.807Z,99805.63
2022-09-07T05:52:02.032Z,99746.41
2022-09-07T05:54:29.122Z,99793.63
2022-09-07T05:56:56.173Z,99795.53
2022-09-07T05:59:23.157Z,99786.00
2022-09-07T06:01:50.302Z,99791.47
2022-09-07T06:04:17.445Z,99794.06
2022-09-07T06:06:54.664Z,99763.63
2022-09-07T06:09:31.717Z,99773.38
2022-09-07T06:11:58.948Z,99788.25
2022-09-07T06:14:26.062Z,99769.06
2022-09-07T06:16:53.829Z,99795.28
2022-09-07T06:19:21.056Z,99800.41
2022-09-07T06:21:48.026Z,99803.19
2022-09-07T06:24:15.490Z,99798.97
2022-09-07T06:26:42.555Z,99783.47
2022-09-07T06:29:10.410Z,99800.13
2022-09-07T06:34:25.638Z,99791.75
2022-09-07T06:36:55.239Z,99789.22
2022-09-07T06:39:22.483Z,99802.41
2022-09-07T06:42:04.902Z,99751.16
2022-09-07T06:44:32.705Z,99707.84
2022-09-07T06:49:27.053Z,99763.16
2022-09-07T06:51:54.267Z,99768.34
2022-09-07T06:57:09.502Z,99733.09
2022-09-07T06:59:37.966Z,99758.53
2022-09-07T07:02:06.491Z,99769.19
2022-09-07T07:04:39.406Z,99650.66
2022-09-07T07:07:11.514Z,99771.91
2022-09-07T07:09:39.153Z,99779.16
2022-09-07T07:12:06.408Z,99756.59
2022-09-07T07:14:34.664Z,99776.69
2022-09-07T07:17:03.646Z,99756.69
2022-09-07T07:19:30.733Z,99749.81
2022-09-07T07:24:45.317Z,99761.19
2022-09-07T07:27:12.468Z,99756.00
2022-09-07T07:29:39.556Z,99760.38
2022-09-07T07:32:06.694Z,99759.56
2022-09-07T07:34:33.826Z,99736.97
2022-09-07T07:37:01.019Z,99765.69
2022-09-07T07:42:15.310Z,99754.34
2022-09-07T07:44:42.352Z,99761.34
2022-09-07T07:47:10.557Z,99767.47
2022-09-07T07:49:37.928Z,99755.31
2022-09-07T07:54:53.477Z,99758.72
2022-09-07T07:57:20.685Z,99748.25
2022-09-07T07:59:47.791Z,99739.56
2022-09-07T08:02:16.356Z,99743.84
2022-09-07T08:04:43.491Z,99715.16
2022-09-07T08:07:14.102Z,99661.28
2022-09-07T08:09:42.732Z,99744.75
2022-09-07T08:12:12.291Z,99730.81
2022-09-07T08:14:43.628Z,99747.34
2022-09-07T08:17:13.164Z,99643.00
2022-09-07T08:19:40.861Z,99730.81
2022-09-07T08:22:09.497Z,99710.81
2022-09-07T08:24:36.505Z,99610.88
2022-09-07T08:27:04.173Z,99726.50
2022-09-07T08:29:34.548Z,99699.56
2022-09-07T08:32:04.138Z,99707.44
2022-09-07T08:34:31.200Z,99683.06
2022-09-07T08:36:58.226Z,99721.38
2022-09-07T08:39:25.190Z,99617.03
2022-09-07T08:41:52.062Z,99720.50
2022-09-07T08:44:18.902Z,99675.28
2022-09-07T08:46:55.110Z,99646.59
2022-09-07T08:49:33.764Z,99641.41
2022-09-07T08:52:04.620Z,99715.28
2022-09-07T08:54:33.207Z,99579.66
2022-09-07T09:00:08.011Z,99715.25
2022-09-07T09:02:43.215Z,99696.97
2022-09-07T09:05:42.109Z,99701.34
2022-09-07T09:08:20.246Z,99683.91
2022-09-07T09:10:51.391Z,99708.28
2022-09-07T09:13:26.760Z,99701.31
2022-09-07T09:15:56.823Z,99704.78
2022-09-07T09:18:35.350Z,99690.00
2022-09-07T09:21:02.927Z,99709.16
2022-09-07T09:23:41.445Z,99614.38
2022-09-07T09:26:25.035Z,99699.63
2022-09-07T09:28:52.256Z,99705.66
2022-09-07T09:31:26.243Z,99699.63
2022-09-07T09:34:05.054Z,99698.72
2022-09-07T09:36:35.256Z,99670.91
2022-09-07T09:39:33.811Z,99679.56
2022-09-07T09:42:17.796Z,99688.28
2022-09-07T09:44:45.710Z,99692.59
2022-09-07T09:47:29.886Z,99701.28
2022-09-07T09:49:59.721Z,99676.84
2022-09-07T09:52:38.206Z,99696.81
2022-09-07T09:55:34.525Z,99668.91
2022-09-07T10:03:59.150Z,99692.34
2022-09-07T10:06:28.544Z,99609.03
2022-09-07T10:08:58.156Z,99697.63
2022-09-07T10:14:44.995Z,99694.19
2022-09-07T10:17:33.416Z,99718.59
2022-09-07T10:20:20.107Z,99699.50
2022-09-07T10:22:59.687Z,99615.19
2022-09-07T10:25:39.728Z,99700.38
2022-09-07T10:28:15.676Z,99689.13
2022-09-07T10:31:19.782Z,99697.84
2022-09-07T10:34:29.993Z,99698.72
2022-09-07T10:37:05.781Z,99624.81
2022-09-07T10:40:00.112Z,99664.81
2022-09-07T10:42:32.943Z,99694.41
2022-09-07T10:45:13.100Z,99703.09
2022-09-07T10:47:46.958Z,99604.00
2022-09-07T10:50:32.057Z,99690.06
2022-09-07T10:53:39.643Z,99705.72
2022-09-07T10:56:15.273Z,99680.50
2022-09-07T10:59:24.013Z,99703.13
2022-09-07T11:02:09.233Z,99617.91
2022-09-07T11:05:03.925Z,99701.38
2022-09-07T11:07:56.129Z,99704.00
2022-09-07T11:10:26.271Z,99683.97
2022-09-07T11:12:59.562Z,99675.25
2022-09-07T11:15:31.401Z,99600.41
2022-09-07T11:18:07.950Z,99698.72
2022-09-07T11:20:38.884Z,99703.91
2022-09-07T11:23:21.332Z,99696.03
2022-09-07T11:26:07.627Z,99713.41
2022-09-07T11:28:46.288Z,99625.47
2022-09-07T11:31:28.614Z,99712.47
2022-09-07T11:37:16.968Z,99703.63
2022-09-07T11:40:25.048Z,99730.50
2022-09-07T11:43:03.116Z,99714.75
2022-09-07T11:45:51.982Z,99708.59
2022-09-07T11:48:30.370Z,99713.81
2022-09-07T11:51:40.026Z,99713.81
2022-09-07T11:54:36.700Z,99614.38
2022-09-07T11:57:15.900Z,99614.41
2022-09-07T12:00:01.807Z,99711.16
2022-09-07T12:03:13.561Z,99710.25
2022-09-07T12:06:02.376Z,99707.63
2022-09-07T12:08:49.763Z,99705.03
2022-09-07T12:11:23.236Z,99696.31
2022-09-07T12:14:03.347Z,99701.56
2022-09-07T12:17:07.414Z,99702.41
2022-09-07T12:19:34.731Z,99669.13
2022-09-07T12:22:02.183Z,99678.72
2022-09-07T12:24:45.312Z,99712.69
2022-09-07T12:27:32.720Z,99679.63
2022-09-07T12:30:02.408Z,99697.06
2022-09-07T12:32:57.388Z,99677.00
2022-09-07T12:35:31.147Z,99693.47
2022-09-07T12:38:06.090Z,99684.63
2022-09-07T12:40:36.226Z,99688.19
2022-09-07T12:43:12.571Z,99694.25
2022-09-07T12:45:39.662Z,99614.09
2022-09-07T12:48:29.063Z,99679.53
2022-09-07T12:51:15.910Z,99691.59
2022-09-07T12:54:04.499Z,99688.13
2022-09-07T12:56:46.866Z,99627.97
2022-09-07T12:59:22.681Z,99671.50
2022-09-07T13:01:59.213Z,99535.66
2022-09-07T13:04:29.456Z,99686.22
2022-09-07T13:07:09.106Z,99688.81
2022-09-07T13:09:41.422Z,99683.56
2022-09-07T13:15:34.178Z,99691.28
2022-09-07T13:18:03.548Z,99673.00
2022-09-07T13:20:36.105Z,99627.75
2022-09-07T13:23:22.034Z,99666.09
2022-09-07T13:25:51.832Z,99644.16
2022-09-07T13:28:29.068Z,99537.16
2022-09-07T13:31:06.245Z,99595.50
2022-09-07T13:33:36.123Z,99665.22
2022-09-07T13:36:16.050Z,99640.88
2022-09-07T13:38:43.740Z,99566.75
2022-09-07T13:41:18.734Z,99651.28
2022-09-07T13:43:51.020Z,99563.34
2022-09-07T13:46:44.800Z,99665.28
2022-09-07T13:49:24.899Z,99661.81
2022-09-07T13:52:12.164Z,99659.28
2022-09-07T13:54:44.918Z,99661.00
2022-09-07T13:57:27.241Z,99666.22
2022-09-07T13:59:57.704Z,99573.88
2022-09-07T14:02:36.330Z,99655.69
2022-09-07T14:05:04.481Z,99647.91
2022-09-07T14:07:32.109Z,99656.63
2022-09-07T14:10:21.614Z,99651.47
2022-09-07T14:12:54.630Z,99655.75
2022-09-07T14:15:33.447Z,99655.75
2022-09-07T14:18:04.996Z,99659.16
2022-09-07T14:20:38.199Z,99558.09
2022-09-07T14:23:30.875Z,99654.84
2022-09-07T14:26:17.177Z,99616.66
2022-09-07T14:28:49.810Z,99638.44
2022-09-07T14:31:20.508Z,99605.31
2022-09-07T14:33:55.430Z,99386.00
2022-09-07T14:36:45.456Z,99634.97
2022-09-07T14:39:16.096Z,99644.44
2022-09-07T14:41:43.963Z,99651.41
2022-09-07T14:44:32.240Z,99641.97
2022-09-07T14:47:06.344Z,99637.56
2022-09-07T14:49:34.425Z,99634.94
2022-09-07T14:52:02.109Z,99638.47
2022-09-07T14:54:34.297Z,99634.97
2022-09-07T14:57:05.788Z,99641.09
2022-09-07T14:59:38.853Z,99652.41
2022-09-07T15:02:18.428Z,99612.50
2022-09-07T15:04:47.645Z,99621.19
2022-09-07T15:07:36.307Z,99556.75
2022-09-07T15:10:35.691Z,99646.41
2022-09-07T15:13:05.255Z,99627.03
2022-09-07T15:15:37.169Z,99621.00
2022-09-07T15:18:47.278Z,99632.38
2022-09-07T15:21:17.314Z,99638.47
2022-09-07T15:23:44.381Z,99638.44
2022-09-07T15:27:01.955Z,99634.13
2022-09-07T15:29:13.696Z,99639.44
2022-09-07T15:31:43.579Z,99615.91
2022-09-07T15:34:17.489Z,99588.06
2022-09-07T15:36:48.746Z,99564.56
2022-09-07T15:39:28.176Z,99624.69
2022-09-07T15:41:55.897Z,99530.59
2022-09-07T15:44:26.173Z,99637.69
2022-09-07T15:49:47.693Z,99655.03
2022-09-07T15:52:17.680Z,99628.13
2022-09-07T15:54:44.707Z,99652.44
2022-09-07T15:59:58.919Z,99632.38
2022-09-07T16:05:14.006Z,99659.53
2022-09-07T16:10:31.186Z,99665.53
2022-09-07T16:13:03.124Z,99651.41
2022-09-07T16:15:45.661Z,99590.47
2022-09-07T16:18:16.920Z,99652.22
2022-09-07T16:20:44.826Z,99622.59
2022-09-07T16:23:16.188Z,99504.16
2022-09-07T16:25:58.491Z,99676.59
2022-09-07T16:28:26.715Z,99673.06
2022-09-07T16:30:54.642Z,99654.69
2022-09-07T16:33:22.233Z,99588.47
2022-09-07T16:36:05.160Z,99674.75
2022-09-07T16:38:47.764Z,99657.28
2022-09-07T16:41:17.622Z,99671.19
2022-09-07T16:43:46.106Z,99690.34
2022-09-07T16:46:16.268Z,99634.53
2022-09-07T16:48:44.132Z,99605.81
2022-09-07T16:51:13.859Z,99591.03
2022-09-07T16:53:41.427Z,99681.72
2022-09-07T16:56:10.797Z,99560.63
2022-09-07T16:58:51.518Z,99686.00
2022-09-07T17:01:21.775Z,99703.44
2022-09-07T17:03:50.162Z,99703.41
2022-09-07T17:06:20.677Z,99653.78
2022-09-07T17:08:48.490Z,99694.75
2022-09-07T17:11:18.726Z,99597.97
2022-09-07T17:13:46.847Z,99572.72
2022-09-07T17:16:29.696Z,99662.47
2022-09-07T17:21:47.051Z,99661.53
2022-09-07T17:24:14.319Z,99681.59
2022-09-07T17:26:42.753Z,99461.03
2022-09-07T17:29:13.154Z,99685.94
2022-09-07T17:34:33.691Z,99719.84
2022-09-07T17:37:06.783Z,99716.41
2022-09-07T17:39:34.704Z,99713.78
2022-09-07T17:42:02.238Z,99630.06
2022-09-07T17:44:34.717Z,99699.69
2022-09-07T17:47:05.203Z,99667.50
2022-09-07T17:49:32.380Z,99681.34
2022-09-07T17:52:01.120Z,99700.47
2022-09-07T17:54:28.517Z,99584.47
2022-09-07T17:56:55.788Z,99678.63
2022-09-07T18:02:12.749Z,99716.00
2022-09-07T18:04:40.001Z,99718.50
2022-09-07T18:07:07.466Z,99704.56
2022-09-07T18:09:35.300Z,99703.59
2022-09-07T18:12:04.218Z,99720.94
2022-09-07T18:14:31.498Z,99707.81
2022-09-07T18:16:58.877Z,99703.44
2022-09-07T18:19:26.621Z,99429.72
2022-09-07T18:21:53.846Z,99678.91
2022-09-07T18:24:24.244Z,99719.78
2022-09-07T18:26:54.326Z,99639.47
2022-09-07T18:29:31.101Z,99674.28
2022-09-07T18:32:00.785Z,99724.88
2022-09-07T18:34:29.174Z,99698.53
2022-09-07T18:36:58.325Z,99696.88
2022-09-07T18:39:26.244Z,99587.91
2022-09-07T18:41:56.707Z,99699.56
2022-09-07T18:47:21.431Z,99695.81
2022-09-07T18:49:51.819Z,99686.28
2022-09-07T18:55:08.737Z,99721.06
2022-09-07T18:57:36.562Z,99693.06
2022-09-07T19:00:06.546Z,99699.94
2022-09-07T19:02:33.818Z,99531.97
2022-09-07T19:07:48.014Z,99682.72
2022-09-07T19:10:17.000Z,99721.03
2022-09-07T19:12:46.130Z,99733.28
2022-09-07T19:15:14.528Z,99743.69
2022-09-07T19:17:41.563Z,99706.09
2022-09-07T19:20:09.339Z,99632.03
2022-09-07T19:22:36.436Z,99736.66
2022-09-07T19:25:04.096Z,99605.91
2022-09-07T19:27:33.254Z,99722.06
2022-09-07T19:30:00.615Z,99727.28
2022-09-07T19:32:27.687Z,99688.97
2022-09-07T19:34:55.623Z,99692.34
2022-09-07T19:37:25.666Z,99698.41
2022-09-07T19:39:56.827Z,99480.41
2022-09-07T19:42:25.101Z,99735.94
2022-09-07T19:44:53.041Z,99736.78
2022-09-07T19:47:20.943Z,99667.81
2022-09-07T19:49:48.237Z,99735.03
2022-09-07T19:52:15.517Z,99629.56
2022-09-07T19:54:42.478Z,99735.16
2022-09-07T19:57:09.429Z,99735.22
2022-09-07T19:59:36.484Z,99736.13
2022-09-07T20:02:03.781Z,99558.31
2022-09-07T20:04:30.984Z,99699.69
2022-09-07T20:06:58.175Z,99737.09
2022-09-07T20:09:25.990Z,99734.47
2022-09-07T20:11:53.140Z,99730.22
2022-09-07T20:14:20.494Z,99697.88
2022-09-07T20:16:47.618Z,99625.56
2022-09-07T20:19:15.222Z,99729.47
2022-09-07T20:21:43.278Z,99582.16
2022-09-07T20:24:14.491Z,99650.16
2022-09-07T20:26:42.030Z,99699.91
2022-09-07T20:32:00.048Z,99569.09
2022-09-07T20:34:28.562Z,99671.06
2022-09-07T20:36:56.915Z,99707.69
2022-09-07T20:39:25.638Z,99712.06
2022-09-07T20:41:52.719Z,99739.03
2022-09-07T20:44:19.747Z,99722.47
2022-09-07T20:46:46.734Z,99617.03
2022-09-07T20:49:13.815Z,99727.78
2022-09-07T20:51:40.927Z,99729.63
2022-09-07T20:54:07.997Z,99686.81
2022-09-07T20:56:35.213Z,99728.69
2022-09-07T20:59:03.780Z,99729.56
2022-09-07T21:01:32.108Z,99721.59
2022-09-07T21:04:00.843Z,99731.22
2022-09-07T21:06:29.559Z,99735.56
2022-09-07T21:08:59.973Z,99739.88
2022-09-07T21:11:29.825Z,99630.09
2022-09-07T21:13:58.526Z,99730.47
2022-09-07T21:16:25.943Z,99609.22
2022-09-07T21:18:55.822Z,99741.72
2022-09-07T21:21:24.631Z,99574.38
2022-09-07T21:23:56.880Z,99613.59
2022-09-07T21:26:24.508Z,99744.38
2022-09-07T21:28:56.169Z,99718.25
2022-09-07T21:31:24.080Z,99747.00
2022-09-07T21:33:55.195Z,99741.00
2022-09-07T21:36:22.238Z,99753.13
2022-09-07T21:38:50.091Z,99741.84
2022-09-07T21:41:21.738Z,99708.72
2022-09-07T21:43:48.903Z,99735.81
2022-09-07T21:46:18.538Z,99729.78
2022-09-07T21:48:46.229Z,99714.06
2022-09-07T21:51:14.489Z,99642.63
2022-09-07T21:53:42.581Z,99540.59
2022-09-07T21:56:14.387Z,99736.75
2022-09-07T21:58:41.507Z,99716.66
2022-09-07T22:01:17.194Z,99741.94
2022-09-07T22:03:46.530Z,99739.25
2022-09-07T22:06:14.705Z,99736.75
2022-09-07T22:08:42.854Z,99732.34
2022-09-07T22:11:15.722Z,99724.56
2022-09-07T22:13:43.657Z,99739.44
2022-09-07T22:16:12.179Z,99633.09
2022-09-07T22:18:42.540Z,99741.19
2022-09-07T22:21:16.094Z,99674.00
2022-09-07T22:23:46.255Z,99692.34
2022-09-07T22:26:14.933Z,99719.47
2022-09-07T22:28:42.296Z,99746.44
2022-09-07T22:31:12.631Z,99708.97
2022-09-07T22:33:40.663Z,99714.16
2022-09-07T22:36:11.680Z,99742.94
2022-09-07T22:38:39.100Z,99746.41
2022-09-07T22:41:14.651Z,99658.38
2022-09-07T22:43:42.877Z,99746.41
2022-09-07T22:46:11.071Z,99717.59
2022-09-07T22:48:38.941Z,99628.69
2022-09-07T22:51:06.247Z,99749.00
2022-09-07T22:53:36.676Z,99758.50
2022-09-07T22:56:18.688Z,99728.94
2022-09-07T22:58:51.954Z,99752.44
2022-09-07T23:01:20.732Z,99644.28
2022-09-07T23:03:48.536Z,99761.09
2022-09-07T23:06:36.203Z,99665.22
2022-09-07T23:09:09.618Z,99760.22
2022-09-07T23:11:36.954Z,99727.84
2022-09-07T23:14:06.812Z,99742.66
2022-09-07T23:16:33.847Z,99761.00
2022-09-07T23:19:01.461Z,99730.47
2022-09-07T23:21:29.123Z,99760.97
2022-09-07T23:23:59.779Z,99762.72
2022-09-07T23:26:29.597Z,99737.44
2022-09-07T23:29:01.996Z,99738.25
2022-09-07T23:31:30.654Z,99714.69
2022-09-07T23:33:57.971Z,99765.31
2022-09-07T23:36:25.639Z,99762.66
2022-09-07T23:38:56.335Z,99767.84
2022-09-07T23:41:25.014Z,99637.88
2022-09-07T23:43:52.983Z,99769.56
2022-09-07T23:46:20.927Z,99757.34
2022-09-07T23:48:49.268Z,99678.03
2022-09-07T23:51:22.741Z,99761.75
2022-09-07T23:53:51.491Z,99757.38
2022-09-07T23:56:18.528Z,99739.88
2022-09-07T23:58:45.498Z,99753.88
